Time;durP1;ratioP1;P1;durP2;ratioP2;P2;SDS_P1;SDS_P2;PMS_P1;PMS_P2;Temp;Humidity;BMP_temperature;BMP_pressure;BME280_temperature;BME280_humidity;BME280_pressure;Samples;Min_cycle;Max_cycle;Signal;HPM_P1;HPM_P2
2023/09/01 00:00:47;;;;;;;13.80;6.87;;;;;;;;;;5036913;28;20189;-71
2023/09/01 00:03:13;;;;;;;10.50;6.37;;;;;;;;;;5036791;28;20766;-71
2023/09/01 00:05:39;;;;;;;13.27;7.03;;;;;;;;;;5054115;28;20257;-71
2023/09/01 00:08:05;;;;;;;9.93;6.17;;;;;;;;;;5036221;28;20279;-72
2023/09/01 00:10:35;;;;;;;11.90;6.07;;;;;;;;;;5054627;28;20198;-72
2023/09/01 00:13:01;;;;;;;16.40;6.57;;;;;;;;;;5054002;28;20186;-71
2023/09/01 00:15:28;;;;;;;11.20;6.37;;;;;;;;;;5036136;28;20265;-69
2023/09/01 00:17:54;;;;;;;13.57;6.40;;;;;;;;;;5053846;28;20255;-69
2023/09/01 00:20:20;;;;;;;14.33;6.57;;;;;;;;;;5053524;28;20183;-69
2023/09/01 00:22:46;;;;;;;12.43;6.60;;;;;;;;;;5053879;28;20182;-70
2023/09/01 00:25:12;;;;;;;16.03;6.73;;;;;;;;;;5035827;28;20698;-70
2023/09/01 00:27:38;;;;;;;11.30;6.07;;;;;;;;;;5053878;28;20296;-70
2023/09/01 00:30:04;;;;;;;14.90;6.87;;;;;;;;;;5035820;28;20198;-69
2023/09/01 00:32:30;;;;;;;11.20;6.50;;;;;;;;;;5035730;28;20182;-69
2023/09/01 00:34:57;;;;;;;13.27;7.20;;;;;;;;;;5053601;28;20262;-70
2023/09/01 00:37:23;;;;;;;15.77;7.07;;;;;;;;;;5036408;28;20191;-68
2023/09/01 00:39:49;;;;;;;11.27;6.77;;;;;;;;;;5053585;28;20198;-70
2023/09/01 00:42:15;;;;;;;10.00;5.80;;;;;;;;;;5053802;28;20182;-70
2023/09/01 00:44:41;;;;;;;14.43;6.50;;;;;;;;;;5054454;28;20205;-70
2023/09/01 00:47:07;;;;;;;12.50;6.53;;;;;;;;;;5055157;28;20216;-71
2023/09/01 00:49:33;;;;;;;10.83;6.60;;;;;;;;;;5036481;28;20301;-70
2023/09/01 00:52:00;;;;;;;12.43;6.27;;;;;;;;;;5053899;28;20178;-70
2023/09/01 00:54:27;;;;;;;13.67;6.17;;;;;;;;;;5053715;28;20182;-70
2023/09/01 00:56:56;;;;;;;15.13;6.60;;;;;;;;;;5035743;28;20182;-70
2023/09/01 00:59:22;;;;;;;12.50;6.67;;;;;;;;;;5053183;28;20206;-70
2023/09/01 01:01:48;;;;;;;17.53;6.77;;;;;;;;;;5053508;28;20539;-70
2023/09/01 01:04:15;;;;;;;17.47;7.40;;;;;;;;;;5053239;28;20270;-70
2023/09/01 01:07:06;;;;;;;17.33;7.07;;;;;;;;;;5053351;28;20616;-70
2023/09/01 01:09:44;;;;;;;16.20;6.93;;;;;;;;;;5053113;28;20194;-70
2023/09/01 01:12:16;;;;;;;11.67;6.03;;;;;;;;;;5053130;28;20231;-70
2023/09/01 01:14:46;;;;;;;12.80;6.63;;;;;;;;;;5035981;28;20186;-72
2023/09/01 01:17:13;;;;;;;15.02;7.32;;;;;;;;;;5036147;28;20378;-70
2023/09/01 01:19:55;;;;;;;15.30;6.70;;;;;;;;;;5036303;28;20202;-70
2023/09/01 01:22:28;;;;;;;13.60;6.07;;;;;;;;;;5054069;28;20236;-70
2023/09/01 01:24:54;;;;;;;12.93;6.07;;;;;;;;;;5053599;28;20167;-70
2023/09/01 01:27:20;;;;;;;11.50;6.17;;;;;;;;;;5035087;28;20280;-70
2023/09/01 01:29:47;;;;;;;13.87;6.73;;;;;;;;;;5034909;28;20206;-70
2023/09/01 01:32:14;;;;;;;13.37;6.73;;;;;;;;;;5055529;28;20226;-70
2023/09/01 01:34:42;;;;;;;15.47;7.93;;;;;;;;;;5039302;28;20178;-71
2023/09/01 01:37:08;;;;;;;13.63;7.23;;;;;;;;;;5057325;28;20210;-70
2023/09/01 01:39:34;;;;;;;18.10;8.90;;;;;;;;;;5056827;28;20226;-71
2023/09/01 01:42:02;;;;;;;20.67;9.57;;;;;;;;;;5057005;28;20217;-70
2023/09/01 01:44:31;;;;;;;17.23;8.40;;;;;;;;;;5057509;28;20649;-70
2023/09/01 01:46:58;;;;;;;22.85;10.85;;;;;;;;;;5037994;28;20404;-71
2023/09/01 01:49:23;;;;;;;13.57;6.73;;;;;;;;;;5056858;28;20347;-71
2023/09/01 01:51:49;;;;;;;14.07;6.93;;;;;;;;;;5039069;28;20668;-71
2023/09/01 01:54:15;;;;;;;14.20;7.63;;;;;;;;;;5056999;28;20548;-70
2023/09/01 01:56:41;;;;;;;11.10;7.30;;;;;;;;;;5039295;28;20232;-71
2023/09/01 01:59:07;;;;;;;14.63;7.53;;;;;;;;;;5056643;28;20194;-70
2023/09/01 02:01:33;;;;;;;12.30;6.70;;;;;;;;;;5056755;28;20592;-71
2023/09/01 02:03:59;;;;;;;12.60;7.20;;;;;;;;;;5038914;28;20189;-70
2023/09/01 02:06:25;;;;;;;15.90;7.20;;;;;;;;;;5056702;28;20256;-70
2023/09/01 02:08:51;;;;;;;12.13;6.70;;;;;;;;;;5056966;28;20245;-70
2023/09/01 02:11:17;;;;;;;15.63;7.03;;;;;;;;;;5056677;28;20214;-73
2023/09/01 02:13:44;;;;;;;10.80;7.00;;;;;;;;;;5057102;28;20185;-70
2023/09/01 02:16:11;;;;;;;14.53;7.00;;;;;;;;;;5056658;28;20186;-70
2023/09/01 02:18:37;;;;;;;11.47;7.10;;;;;;;;;;5056764;28;20194;-71
2023/09/01 02:21:05;;;;;;;13.73;7.07;;;;;;;;;;5056697;28;20185;-70
2023/09/01 02:23:30;;;;;;;14.07;6.87;;;;;;;;;;5056797;28;20225;-70
2023/09/01 02:25:56;;;;;;;16.43;6.77;;;;;;;;;;5056359;28;20182;-70
2023/09/01 02:28:23;;;;;;;13.70;5.97;;;;;;;;;;5055446;28;20209;-71
2023/09/01 02:30:49;;;;;;;12.13;6.93;;;;;;;;;;5055082;28;20202;-71
2023/09/01 02:33:15;;;;;;;13.33;6.63;;;;;;;;;;5055481;28;20232;-70
2023/09/01 02:35:42;;;;;;;14.43;7.90;;;;;;;;;;5054857;28;20249;-70
2023/09/01 02:38:08;;;;;;;14.03;7.27;;;;;;;;;;5054688;28;20197;-71
2023/09/01 02:40:34;;;;;;;14.70;6.93;;;;;;;;;;5054597;28;20554;-71
2023/09/01 02:43:00;;;;;;;12.10;7.00;;;;;;;;;;5054543;28;20189;-70
2023/09/01 02:45:26;;;;;;;12.50;7.47;;;;;;;;;;5036826;28;20183;-71
2023/09/01 02:47:52;;;;;;;16.87;8.13;;;;;;;;;;5036636;28;20676;-70
2023/09/01 02:50:18;;;;;;;17.63;8.73;;;;;;;;;;5054662;28;20693;-70
2023/09/01 02:52:44;;;;;;;12.87;7.70;;;;;;;;;;5054529;28;20175;-71
2023/09/01 02:55:10;;;;;;;16.27;7.23;;;;;;;;;;5054425;28;20183;-70
2023/09/01 02:57:36;;;;;;;13.57;7.17;;;;;;;;;;5054352;28;20626;-70
2023/09/01 03:00:14;;;;;;;13.83;7.57;;;;;;;;;;5054523;28;20197;-70
2023/09/01 03:02:40;;;;;;;15.63;7.13;;;;;;;;;;5036367;28;20182;-70
2023/09/01 03:05:07;;;;;;;11.17;6.73;;;;;;;;;;5054385;28;20308;-70
2023/09/01 03:07:33;;;;;;;11.50;6.43;;;;;;;;;;5036174;28;20179;-70
2023/09/01 03:10:01;;;;;;;15.13;5.57;;;;;;;;;;5036129;28;20206;-70
2023/09/01 03:12:27;;;;;;;12.20;5.50;;;;;;;;;;5036168;28;20557;-71
2023/09/01 03:14:53;;;;;;;14.93;5.50;;;;;;;;;;5036047;28;20175;-71
2023/09/01 03:17:19;;;;;;;10.30;5.13;;;;;;;;;;5053889;28;20174;-71
2023/09/01 03:19:45;;;;;;;9.37;5.97;;;;;;;;;;5054231;28;20233;-70
2023/09/01 03:22:12;;;;;;;9.83;5.70;;;;;;;;;;5036036;28;20257;-70
2023/09/01 03:24:38;;;;;;;14.23;5.63;;;;;;;;;;5053798;28;20660;-71
2023/09/01 03:27:04;;;;;;;10.50;5.33;;;;;;;;;;5053954;28;20612;-70
2023/09/01 03:29:30;;;;;;;7.83;5.13;;;;;;;;;;5015505;28;1159151;-70
2023/09/01 03:31:56;;;;;;;11.23;5.13;;;;;;;;;;5055915;28;20210;-69
2023/09/01 03:34:23;;;;;;;10.07;5.50;;;;;;;;;;5055538;28;20182;-70
2023/09/01 03:36:49;;;;;;;13.43;5.43;;;;;;;;;;5055466;28;20632;-70
2023/09/01 03:39:15;;;;;;;9.27;4.90;;;;;;;;;;5054962;28;20260;-70
2023/09/01 03:41:41;;;;;;;9.93;5.40;;;;;;;;;;5036952;28;20208;-70
2023/09/01 03:44:07;;;;;;;8.43;5.77;;;;;;;;;;5055127;28;20192;-70
2023/09/01 03:46:33;;;;;;;12.87;6.57;;;;;;;;;;5054845;28;20265;-70
2023/09/01 03:48:59;;;;;;;13.80;7.37;;;;;;;;;;5036732;28;20207;-70
2023/09/01 03:51:25;;;;;;;14.50;9.23;;;;;;;;;;5054597;28;20325;-70
2023/09/01 03:53:51;;;;;;;14.10;8.53;;;;;;;;;;5053788;28;20175;-70
2023/09/01 03:56:19;;;;;;;12.23;8.50;;;;;;;;;;5054831;28;20190;-70
2023/09/01 03:58:45;;;;;;;12.47;8.00;;;;;;;;;;5054349;28;20195;-70
2023/09/01 04:01:11;;;;;;;15.33;6.97;;;;;;;;;;5054569;28;20178;-70
2023/09/01 04:03:38;;;;;;;11.93;6.80;;;;;;;;;;5037196;28;20273;-69
2023/09/01 04:06:05;;;;;;;11.83;6.23;;;;;;;;;;5036654;28;20174;-70
2023/09/01 04:08:31;;;;;;;12.93;6.73;;;;;;;;;;5054183;28;20190;-70
2023/09/01 04:10:57;;;;;;;10.83;6.20;;;;;;;;;;5054117;28;20202;-71
2023/09/01 04:13:23;;;;;;;10.73;6.17;;;;;;;;;;5036542;28;20185;-69
2023/09/01 04:15:50;;;;;;;9.63;6.07;;;;;;;;;;5053848;28;20179;-70
2023/09/01 04:18:17;;;;;;;15.80;6.30;;;;;;;;;;5054096;28;20770;-70
2023/09/01 04:20:49;;;;;;;14.40;6.27;;;;;;;;;;5036495;28;20186;-69
2023/09/01 04:23:15;;;;;;;8.93;5.27;;;;;;;;;;5036140;28;20190;-69
2023/09/01 04:25:43;;;;;;;7.63;5.60;;;;;;;;;;5036530;28;20535;-71
2023/09/01 04:28:10;;;;;;;8.07;5.70;;;;;;;;;;5053907;28;20209;-70
2023/09/01 04:30:36;;;;;;;10.17;6.03;;;;;;;;;;5054267;28;20264;-69
2023/09/01 04:33:04;;;;;;;12.33;5.60;;;;;;;;;;5054497;28;20185;-70
2023/09/01 04:35:30;;;;;;;10.27;6.20;;;;;;;;;;5054063;28;20175;-69
2023/09/01 04:37:56;;;;;;;11.33;6.10;;;;;;;;;;5054129;28;20190;-70
2023/09/01 04:40:22;;;;;;;9.73;6.23;;;;;;;;;;5035775;28;20205;-70
2023/09/01 04:42:48;;;;;;;10.77;5.67;;;;;;;;;;5053606;28;20182;-70
2023/09/01 04:45:14;;;;;;;19.63;7.63;;;;;;;;;;5035722;28;20187;-70
2023/09/01 04:47:40;;;;;;;9.63;6.53;;;;;;;;;;5053905;28;20281;-71
2023/09/01 04:50:06;;;;;;;16.20;5.97;;;;;;;;;;5053464;28;20268;-71
2023/09/01 04:52:32;;;;;;;17.63;6.27;;;;;;;;;;5053463;28;20205;-70
2023/09/01 04:54:58;;;;;;;12.57;5.77;;;;;;;;;;5035622;28;20688;-71
2023/09/01 04:57:24;;;;;;;10.07;5.80;;;;;;;;;;5053398;28;20178;-70
2023/09/01 04:59:50;;;;;;;13.63;6.00;;;;;;;;;;5053202;28;20205;-69
2023/09/01 05:02:17;;;;;;;7.60;5.30;;;;;;;;;;5053369;28;20260;-69
2023/09/01 05:04:43;;;;;;;10.73;5.77;;;;;;;;;;5053764;28;20175;-70
2023/09/01 05:07:09;;;;;;;7.53;5.33;;;;;;;;;;5053379;28;20205;-69
2023/09/01 05:09:35;;;;;;;12.10;5.47;;;;;;;;;;5052814;28;20259;-69
2023/09/01 05:12:00;;;;;;;10.97;6.83;;;;;;;;;;5035309;28;20188;-69
2023/09/01 05:14:26;;;;;;;12.67;6.87;;;;;;;;;;5053465;28;20235;-69
2023/09/01 05:16:53;;;;;;;11.63;6.13;;;;;;;;;;5053205;28;20242;-69
2023/09/01 05:19:19;;;;;;;12.10;5.57;;;;;;;;;;5053102;28;20320;-69
2023/09/01 05:21:45;;;;;;;11.13;5.83;;;;;;;;;;5053145;28;20659;-69
2023/09/01 05:24:10;;;;;;;7.33;5.13;;;;;;;;;;5035302;28;20187;-69
2023/09/01 05:26:36;;;;;;;10.20;5.87;;;;;;;;;;5053198;28;20173;-69
2023/09/01 05:29:02;;;;;;;9.60;5.40;;;;;;;;;;5052950;28;20218;-70
2023/09/01 05:31:28;;;;;;;8.10;4.97;;;;;;;;;;5052804;28;20597;-70
2023/09/01 05:33:54;;;;;;;7.07;5.07;;;;;;;;;;5052820;28;20170;-70
2023/09/01 05:36:20;;;;;;;8.07;5.17;;;;;;;;;;5052823;28;20182;-70
2023/09/01 05:38:46;;;;;;;8.40;4.97;;;;;;;;;;5034990;28;20248;-70
2023/09/01 05:41:14;;;;;;;12.70;5.90;;;;;;;;;;5053162;28;20231;-70
2023/09/01 05:43:40;;;;;;;9.80;5.57;;;;;;;;;;5035710;28;20185;-70
2023/09/01 05:46:06;;;;;;;9.53;5.53;;;;;;;;;;5054762;28;20671;-69
2023/09/01 05:48:32;;;;;;;8.20;5.70;;;;;;;;;;5065810;28;20254;-70
2023/09/01 05:50:58;;;;;;;13.33;5.80;;;;;;;;;;5054295;28;20292;-70
2023/09/01 05:53:27;;;;;;;10.37;5.10;;;;;;;;;;5035948;28;20186;-70
2023/09/01 05:55:53;;;;;;;12.77;4.83;;;;;;;;;;5055162;28;20547;-71
2023/09/01 05:58:19;;;;;;;7.70;4.50;;;;;;;;;;5035537;28;20251;-69
2023/09/01 06:00:45;;;;;;;6.00;4.70;;;;;;;;;;5053453;28;20174;-69
2023/09/01 06:03:11;;;;;;;8.13;5.00;;;;;;;;;;5053323;28;20700;-70
2023/09/01 06:05:37;;;;;;;8.93;5.83;;;;;;;;;;5034915;28;20186;-70
2023/09/01 06:08:03;;;;;;;11.47;6.00;;;;;;;;;;5052968;28;20285;-71
2023/09/01 06:10:29;;;;;;;11.67;7.03;;;;;;;;;;5052853;28;20228;-70
2023/09/01 06:12:55;;;;;;;12.13;6.57;;;;;;;;;;5052527;28;20551;-70
2023/09/01 06:15:21;;;;;;;10.23;6.40;;;;;;;;;;5035530;28;20179;-70
2023/09/01 06:17:47;;;;;;;9.20;5.67;;;;;;;;;;5054190;28;20567;-71
2023/09/01 06:20:13;;;;;;;10.10;5.80;;;;;;;;;;5038549;28;20178;-70
2023/09/01 06:22:39;;;;;;;12.17;7.23;;;;;;;;;;5056497;28;20189;-70
2023/09/01 06:25:05;;;;;;;10.20;5.90;;;;;;;;;;5057122;28;20178;-70
2023/09/01 06:27:34;;;;;;;10.20;6.00;;;;;;;;;;5056593;28;20182;-70
2023/09/01 06:29:59;;;;;;;8.90;6.00;;;;;;;;;;5039029;28;20210;-70
2023/09/01 06:32:25;;;;;;;11.40;6.30;;;;;;;;;;5057101;28;20179;-70
2023/09/01 06:34:52;;;;;;;11.13;6.07;;;;;;;;;;5038738;28;20556;-72
2023/09/01 06:37:17;;;;;;;10.10;6.40;;;;;;;;;;5056343;28;20175;-71
2023/09/01 06:39:43;;;;;;;14.17;7.07;;;;;;;;;;5056267;28;20614;-70
2023/09/01 06:42:09;;;;;;;14.93;6.70;;;;;;;;;;5039790;28;20182;-70
2023/09/01 06:44:35;;;;;;;9.40;6.23;;;;;;;;;;5057253;28;20182;-70
2023/09/01 06:47:01;;;;;;;9.87;5.63;;;;;;;;;;5056342;28;20178;-70
2023/09/01 06:49:27;;;;;;;9.30;5.80;;;;;;;;;;5037854;28;20236;-69
2023/09/01 06:51:53;;;;;;;15.90;5.63;;;;;;;;;;5055732;28;20228;-69
2023/09/01 06:54:19;;;;;;;13.73;5.00;;;;;;;;;;5037874;28;20179;-70
2023/09/01 06:56:45;;;;;;;13.03;5.17;;;;;;;;;;5037803;28;20170;-70
2023/09/01 06:59:11;;;;;;;15.07;5.40;;;;;;;;;;5055643;28;20204;-70
2023/09/01 07:01:37;;;;;;;10.30;5.27;;;;;;;;;;5055439;28;20699;-70
2023/09/01 07:04:04;;;;;;;6.83;4.83;;;;;;;;;;5037559;28;20554;-70
2023/09/01 07:06:30;;;;;;;7.77;5.60;;;;;;;;;;5055411;28;20257;-70
2023/09/01 07:08:56;;;;;;;8.83;5.07;;;;;;;;;;5037643;28;20285;-70
2023/09/01 07:11:22;;;;;;;14.03;9.83;;;;;;;;;;5055442;28;20293;-71
2023/09/01 07:13:49;;;;;;;18.77;13.67;;;;;;;;;;5037453;28;20178;-70
2023/09/01 07:16:14;;;;;;;20.60;12.27;;;;;;;;;;5055632;28;20174;-70
2023/09/01 07:18:40;;;;;;;8.77;5.63;;;;;;;;;;5037107;28;20256;-71
2023/09/01 07:21:06;;;;;;;6.13;4.57;;;;;;;;;;5054973;28;20210;-70
2023/09/01 07:23:33;;;;;;;8.93;4.33;;;;;;;;;;5055137;28;20175;-70
2023/09/01 07:25:59;;;;;;;5.40;4.33;;;;;;;;;;5054990;28;20202;-70
2023/09/01 07:28:25;;;;;;;5.83;3.97;;;;;;;;;;5055025;28;20572;-71
2023/09/01 07:30:53;;;;;;;6.20;3.50;;;;;;;;;;5054538;28;20202;-71
2023/09/01 07:33:19;;;;;;;5.57;3.30;;;;;;;;;;5055182;28;20192;-70
2023/09/01 07:35:46;;;;;;;5.63;3.33;;;;;;;;;;5036975;28;20714;-70
2023/09/01 07:38:12;;;;;;;4.93;3.17;;;;;;;;;;5037029;28;20203;-70
2023/09/01 07:40:38;;;;;;;4.90;3.40;;;;;;;;;;5036822;28;20186;-70
2023/09/01 07:43:04;;;;;;;5.80;3.60;;;;;;;;;;5036731;28;20185;-70
2023/09/01 07:45:30;;;;;;;7.13;3.50;;;;;;;;;;5054692;28;20174;-70
2023/09/01 07:47:56;;;;;;;8.03;4.07;;;;;;;;;;5054467;28;20203;-71
2023/09/01 07:50:23;;;;;;;5.97;4.00;;;;;;;;;;5054367;28;20198;-70
2023/09/01 07:52:50;;;;;;;3.87;3.33;;;;;;;;;;5036612;28;20180;-71
2023/09/01 07:55:16;;;;;;;4.73;2.97;;;;;;;;;;5054571;28;20708;-71
2023/09/01 07:57:42;;;;;;;3.90;3.20;;;;;;;;;;5054247;28;20191;-70
2023/09/01 08:00:09;;;;;;;9.37;3.60;;;;;;;;;;5055708;28;20253;-70
2023/09/01 08:02:35;;;;;;;6.57;3.40;;;;;;;;;;5038580;28;20187;-70
2023/09/01 08:05:03;;;;;;;11.03;4.37;;;;;;;;;;5038534;28;20673;-70
2023/09/01 08:07:29;;;;;;;8.63;4.60;;;;;;;;;;5055731;28;20183;-71
2023/09/01 08:09:55;;;;;;;6.37;4.10;;;;;;;;;;5055382;28;20209;-70
2023/09/01 08:12:21;;;;;;;7.83;3.30;;;;;;;;;;5055490;28;20174;-70
2023/09/01 08:14:47;;;;;;;6.70;3.17;;;;;;;;;;5055902;28;20620;-70
2023/09/01 08:17:13;;;;;;;3.77;3.33;;;;;;;;;;5054459;28;20701;-70
2023/09/01 08:19:40;;;;;;;6.43;3.77;;;;;;;;;;5054634;28;20721;-70
2023/09/01 08:22:06;;;;;;;4.23;3.30;;;;;;;;;;5036335;28;20186;-70
2023/09/01 08:24:32;;;;;;;3.50;3.20;;;;;;;;;;5054515;28;20206;-70
2023/09/01 08:26:58;;;;;;;6.43;3.30;;;;;;;;;;5053990;28;20217;-70
2023/09/01 08:29:24;;;;;;;5.10;3.37;;;;;;;;;;5053726;28;20209;-70
2023/09/01 08:31:50;;;;;;;4.00;3.20;;;;;;;;;;5053817;28;20223;-70
2023/09/01 08:34:16;;;;;;;4.73;3.67;;;;;;;;;;5053891;28;20182;-70
2023/09/01 08:36:43;;;;;;;5.00;3.80;;;;;;;;;;5035876;28;20706;-70
2023/09/01 08:39:09;;;;;;;10.47;4.73;;;;;;;;;;5053926;28;20190;-70
2023/09/01 08:41:37;;;;;;;11.63;7.17;;;;;;;;;;5035411;28;20186;-70
2023/09/01 08:44:08;;;;;;;21.87;11.60;;;;;;;;;;5036235;28;20538;-70
2023/09/01 08:46:36;;;;;;;17.87;9.27;;;;;;;;;;5053660;28;20271;-70
2023/09/01 08:49:02;;;;;;;21.50;10.03;;;;;;;;;;5035747;28;20206;-70
2023/09/01 08:51:29;;;;;;;18.73;9.27;;;;;;;;;;5053649;28;20198;-71
2023/09/01 08:53:55;;;;;;;28.60;11.30;;;;;;;;;;5053827;28;20171;-71
2023/09/01 08:56:21;;;;;;;39.83;16.67;;;;;;;;;;5035721;28;20713;-71
2023/09/01 08:58:47;;;;;;;31.23;14.17;;;;;;;;;;5053317;28;20549;-71
2023/09/01 09:01:16;;;;;;;20.87;9.57;;;;;;;;;;5035828;28;20194;-71
2023/09/01 09:03:42;;;;;;;24.27;10.07;;;;;;;;;;5053510;28;20178;-71
2023/09/01 09:06:08;;;;;;;14.30;8.10;;;;;;;;;;5053578;28;20175;-71
2023/09/01 09:08:34;;;;;;;16.73;7.20;;;;;;;;;;5035378;28;20206;-71
2023/09/01 09:11:00;;;;;;;10.80;6.77;;;;;;;;;;5035786;28;20232;-71
2023/09/01 09:13:27;;;;;;;9.43;6.63;;;;;;;;;;5053667;28;20257;-71
2023/09/01 09:16:06;;;;;;;10.03;7.17;;;;;;;;;;5053667;28;20178;-71
2023/09/01 09:18:32;;;;;;;13.83;7.23;;;;;;;;;;5053375;28;20190;-71
2023/09/01 09:20:59;;;;;;;13.20;7.77;;;;;;;;;;5053303;28;20185;-71
2023/09/01 09:23:43;;;;;;;8.10;6.93;;;;;;;;;;5053882;28;20175;-71
2023/09/01 09:26:09;;;;;;;10.77;8.10;;;;;;;;;;5053896;28;20675;-71
2023/09/01 09:28:35;;;;;;;16.57;8.77;;;;;;;;;;5053690;28;20347;-71
2023/09/01 09:31:02;;;;;;;14.43;8.93;;;;;;;;;;5053737;28;20230;-72
2023/09/01 09:33:29;;;;;;;13.30;8.83;;;;;;;;;;5036139;28;20178;-72
2023/09/01 09:35:55;;;;;;;16.60;9.27;;;;;;;;;;5077078;22;20230;-65
2023/09/01 09:38:21;;;;;;;15.03;9.63;;;;;;;;;;5035028;28;20174;-65
2023/09/01 09:40:57;;;;;;;15.83;9.53;;;;;;;;;;5035118;28;20182;-65
2023/09/01 09:43:23;;;;;;;15.67;10.10;;;;;;;;;;5053244;28;20186;-65
2023/09/01 09:45:51;;;;;;;16.73;9.90;;;;;;;;;;5054081;28;20203;-64
2023/09/01 09:48:17;;;;;;;15.63;10.53;;;;;;;;;;5053110;28;20201;-65
2023/09/01 09:50:43;;;;;;;18.10;10.47;;;;;;;;;;5053171;28;20229;-65
2023/09/01 09:53:16;;;;;;;12.70;10.30;;;;;;;;;;5055048;28;20632;-65
2023/09/01 09:55:45;;;;;;;14.23;10.80;;;;;;;;;;5056935;28;20237;-66
2023/09/01 09:58:11;;;;;;;14.00;10.53;;;;;;;;;;5038818;28;20198;-64
2023/09/01 10:00:42;;;;;;;19.23;13.37;;;;;;;;;;5057301;28;20269;-64
2023/09/01 10:03:09;;;;;;;17.57;11.80;;;;;;;;;;5039082;28;20679;-64
2023/09/01 10:05:35;;;;;;;15.57;11.10;;;;;;;;;;5056484;28;20194;-64
2023/09/01 10:08:03;;;;;;;15.83;10.90;;;;;;;;;;5057104;28;20713;-64
2023/09/01 10:10:30;;;;;;;14.47;10.50;;;;;;;;;;5038915;28;20221;-65
2023/09/01 10:12:57;;;;;;;15.13;10.47;;;;;;;;;;5056472;28;20178;-65
2023/09/01 10:15:25;;;;;;;13.57;10.13;;;;;;;;;;5056558;28;20680;-65
2023/09/01 10:17:52;;;;;;;14.93;10.63;;;;;;;;;;5039533;28;20175;-64
2023/09/01 10:20:17;;;;;;;16.10;9.60;;;;;;;;;;5039173;28;20280;-64
2023/09/01 10:22:44;;;;;;;15.63;10.73;;;;;;;;;;5056926;28;20700;-65
2023/09/01 10:25:17;;;;;;;18.10;11.13;;;;;;;;;;5056873;28;20174;-65
2023/09/01 10:28:02;;;;;;;14.43;10.00;;;;;;;;;;5056833;28;20254;-66
2023/09/01 10:30:30;;;;;;;14.40;10.03;;;;;;;;;;5056618;28;20190;-64
2023/09/01 10:33:07;;;;;;;14.30;10.03;;;;;;;;;;5038802;28;20663;-65
2023/09/01 10:35:45;;;;;;;12.80;9.10;;;;;;;;;;5038606;28;20202;-64
2023/09/01 10:38:17;;;;;;;8.30;7.40;;;;;;;;;;5056769;28;20170;-64
2023/09/01 10:40:46;;;;;;;10.87;7.90;;;;;;;;;;5038823;28;20289;-65
2023/09/01 10:43:12;;;;;;;10.00;7.97;;;;;;;;;;5056265;28;20560;-64
2023/09/01 10:45:41;;;;;;;10.57;7.77;;;;;;;;;;5038971;28;20194;-64
2023/09/01 10:48:11;;;;;;;8.73;7.37;;;;;;;;;;5056787;28;20744;-64
2023/09/01 10:50:40;;;;;;;9.93;7.07;;;;;;;;;;5038537;28;20210;-64
2023/09/01 10:53:25;;;;;;;7.63;6.83;;;;;;;;;;5057186;28;20174;-64
2023/09/01 10:56:07;;;;;;;7.97;6.40;;;;;;;;;;5057007;28;20198;-64
2023/09/01 10:58:40;;;;;;;8.20;5.40;;;;;;;;;;5057125;28;20256;-63
2023/09/01 11:01:24;;;;;;;6.60;5.90;;;;;;;;;;5038398;28;20222;-64
2023/09/01 11:03:51;;;;;;;12.77;6.10;;;;;;;;;;5056936;28;20236;-65
2023/09/01 11:06:16;;;;;;;6.00;5.40;;;;;;;;;;5056248;28;20271;-64
2023/09/01 11:08:56;;;;;;;5.47;4.73;;;;;;;;;;5056497;28;20212;-64
2023/09/01 11:11:22;;;;;;;5.80;5.07;;;;;;;;;;5037928;28;20204;-64
2023/09/01 11:13:55;;;;;;;6.80;4.80;;;;;;;;;;5055865;28;20265;-65
2023/09/01 11:16:21;;;;;;;6.10;4.03;;;;;;;;;;5037815;28;20198;-65
2023/09/01 11:18:58;;;;;;;7.33;4.33;;;;;;;;;;5037965;28;20174;-65
2023/09/01 11:21:24;;;;;;;6.73;5.30;;;;;;;;;;5037792;28;20633;-65
2023/09/01 11:23:56;;;;;;;7.87;5.20;;;;;;;;;;5037653;28;20270;-65
2023/09/01 11:26:22;;;;;;;7.20;4.90;;;;;;;;;;5037368;28;20572;-67
2023/09/01 11:28:48;;;;;;;7.23;5.30;;;;;;;;;;5036852;28;20179;-65
2023/09/01 11:31:14;;;;;;;7.67;5.00;;;;;;;;;;5054684;28;20213;-65
2023/09/01 11:33:42;;;;;;;6.70;5.13;;;;;;;;;;5055276;28;20182;-66
2023/09/01 11:36:10;;;;;;;5.67;4.97;;;;;;;;;;5054637;28;20293;-66
2023/09/01 11:38:36;;;;;;;7.33;5.43;;;;;;;;;;5036882;28;20178;-66
2023/09/01 11:41:07;;;;;;;9.37;6.70;;;;;;;;;;5054879;28;20261;-67
2023/09/01 11:43:33;;;;;;;8.17;7.33;;;;;;;;;;5037058;28;20698;-66
2023/09/01 11:45:59;;;;;;;11.13;9.43;;;;;;;;;;5036832;28;20297;-66
2023/09/01 11:48:26;;;;;;;12.13;9.20;;;;;;;;;;5054865;28;20182;-65
2023/09/01 11:50:57;;;;;;;11.47;8.47;;;;;;;;;;5037025;28;20209;-65
2023/09/01 11:53:24;;;;;;;9.77;7.90;;;;;;;;;;5055533;28;20262;-65
2023/09/01 11:55:50;;;;;;;12.13;8.97;;;;;;;;;;5054861;28;20608;-65
2023/09/01 11:58:16;;;;;;;10.70;8.20;;;;;;;;;;5054854;28;20253;-65
2023/09/01 12:00:42;;;;;;;8.97;7.03;;;;;;;;;;5055007;28;20581;-66
2023/09/01 12:03:08;;;;;;;8.17;6.70;;;;;;;;;;5054277;28;20262;-66
2023/09/01 12:05:38;;;;;;;9.90;7.67;;;;;;;;;;5036408;28;20585;-65
2023/09/01 12:08:05;;;;;;;7.67;6.93;;;;;;;;;;5054335;28;20570;-65
2023/09/01 12:10:31;;;;;;;8.97;7.47;;;;;;;;;;5054579;28;20198;-67
2023/09/01 12:13:03;;;;;;;10.03;8.23;;;;;;;;;;5036105;28;20174;-64
2023/09/01 12:15:29;;;;;;;9.83;7.90;;;;;;;;;;5053226;28;20738;-65
2023/09/01 12:17:55;;;;;;;9.60;8.50;;;;;;;;;;5053912;28;20170;-65
2023/09/01 12:20:21;;;;;;;10.40;8.57;;;;;;;;;;5053808;28;20175;-66
2023/09/01 12:22:48;;;;;;;11.17;8.60;;;;;;;;;;5053852;28;20181;-65
2023/09/01 12:25:14;;;;;;;9.23;8.33;;;;;;;;;;5035819;28;20285;-67
2023/09/01 12:27:40;;;;;;;8.80;8.00;;;;;;;;;;5053911;28;20179;-66
2023/09/01 12:30:06;;;;;;;9.73;8.80;;;;;;;;;;5035746;28;20210;-66
2023/09/01 12:32:32;;;;;;;81.60;46.40;;;;;;;;;;5053876;28;20174;-66
2023/09/01 12:34:58;;;;;;;33.63;22.00;;;;;;;;;;5035616;28;20705;-66
2023/09/01 12:37:24;;;;;;;15.47;11.43;;;;;;;;;;5053600;28;20186;-66
2023/09/01 12:39:50;;;;;;;17.23;13.73;;;;;;;;;;5035740;28;20186;-67
2023/09/01 12:42:16;;;;;;;28.17;17.97;;;;;;;;;;5035638;28;20186;-66
2023/09/01 12:44:42;;;;;;;27.50;18.63;;;;;;;;;;5035735;28;20582;-66
2023/09/01 12:47:08;;;;;;;21.37;15.43;;;;;;;;;;5053415;28;20202;-66
2023/09/01 12:49:34;;;;;;;17.13;12.33;;;;;;;;;;5053312;28;20253;-66
2023/09/01 12:52:00;;;;;;;11.10;9.60;;;;;;;;;;5035860;28;20204;-66
2023/09/01 12:54:26;;;;;;;12.40;9.13;;;;;;;;;;5035562;28;20189;-64
2023/09/01 12:56:52;;;;;;;10.80;9.30;;;;;;;;;;5035652;28;20195;-66
2023/09/01 12:59:18;;;;;;;11.23;9.23;;;;;;;;;;5053600;28;20170;-67
2023/09/01 13:01:44;;;;;;;11.10;8.20;;;;;;;;;;5053735;28;20589;-67
2023/09/01 13:04:10;;;;;;;14.27;9.47;;;;;;;;;;5053831;28;20261;-68
2023/09/01 13:06:36;;;;;;;8.50;7.70;;;;;;;;;;5053853;28;20233;-68
2023/09/01 13:09:03;;;;;;;10.67;7.67;;;;;;;;;;5053293;28;20182;-67
2023/09/01 13:11:29;;;;;;;8.93;6.03;;;;;;;;;;5053136;28;20328;-66
2023/09/01 13:13:55;;;;;;;6.87;5.37;;;;;;;;;;5052941;28;20185;-66
2023/09/01 13:16:27;;;;;;;7.00;5.30;;;;;;;;;;5034960;28;20198;-66
2023/09/01 13:18:53;;;;;;;6.23;4.87;;;;;;;;;;5052912;28;20170;-68
2023/09/01 13:21:19;;;;;;;6.43;5.83;;;;;;;;;;5053225;28;20182;-66
2023/09/01 13:23:47;;;;;;;6.13;5.10;;;;;;;;;;5035552;28;20235;-66
2023/09/01 13:26:15;;;;;;;7.87;5.57;;;;;;;;;;5035299;28;20201;-68
2023/09/01 13:28:41;;;;;;;4.97;4.47;;;;;;;;;;5052790;28;20174;-66
2023/09/01 13:31:07;;;;;;;5.97;5.07;;;;;;;;;;5035198;28;20228;-68
2023/09/01 13:33:38;;;;;;;5.50;5.00;;;;;;;;;;5035298;28;20580;-69
2023/09/01 13:36:04;;;;;;;5.80;5.30;;;;;;;;;;5034730;28;20258;-67
2023/09/01 13:38:30;;;;;;;6.07;5.47;;;;;;;;;;5053238;28;20210;-65
2023/09/01 13:40:56;;;;;;;6.10;5.50;;;;;;;;;;5034967;28;20204;-66
2023/09/01 13:43:22;;;;;;;5.97;5.37;;;;;;;;;;5053123;28;20186;-65
2023/09/01 13:45:48;;;;;;;7.13;6.43;;;;;;;;;;5052963;28;20568;-65
2023/09/01 13:48:14;;;;;;;7.27;6.27;;;;;;;;;;5053274;28;20178;-66
2023/09/01 13:50:40;;;;;;;7.43;6.20;;;;;;;;;;5054156;28;20202;-66
2023/09/01 13:53:06;;;;;;;9.63;6.33;;;;;;;;;;5054022;28;20548;-70
2023/09/01 13:55:32;;;;;;;7.83;7.00;;;;;;;;;;5036060;28;20198;-66
2023/09/01 13:57:58;;;;;;;7.70;7.00;;;;;;;;;;5053019;28;20636;-65
2023/09/01 14:00:24;;;;;;;5.90;4.53;;;;;;;;;;5034986;28;20209;-65
2023/09/01 14:02:50;;;;;;;9.70;4.47;;;;;;;;;;5053075;28;20183;-66
2023/09/01 14:05:16;;;;;;;4.37;3.97;;;;;;;;;;5053545;28;20257;-67
2023/09/01 14:07:42;;;;;;;5.93;3.03;;;;;;;;;;5052996;28;20688;-66
2023/09/01 14:10:08;;;;;;;4.13;2.40;;;;;;;;;;5052799;28;20135;-66
2023/09/01 14:12:34;;;;;;;3.00;2.03;;;;;;;;;;5034055;28;20522;-66
2023/09/01 14:15:00;;;;;;;2.80;1.90;;;;;;;;;;5053275;28;20637;-65
2023/09/01 14:17:26;;;;;;;2.60;2.33;;;;;;;;;;5053799;28;20250;-65
2023/09/01 14:19:52;;;;;;;1.70;1.60;;;;;;;;;;5053400;28;20198;-67
2023/09/01 14:22:18;;;;;;;1.50;1.40;;;;;;;;;;5034532;28;20440;-66
2023/09/01 14:24:44;;;;;;;2.33;2.10;;;;;;;;;;5054122;28;20163;-66
2023/09/01 14:27:09;;;;;;;;;;;;;;;;;;5053431;28;20068;-67
2023/09/01 14:29:36;;;;;;;;;;;;;;;;;;5053428;28;19904;-67
2023/09/01 14:32:03;;;;;;;;;;;;;;;;;;5035731;28;19911;-66
2023/09/01 14:34:29;;;;;;;;;;;;;;;;;;5053458;28;20362;-67